sensor_id;sensor_type;location;lat;lon;timestamp;P1;durP1;ratioP1;P2;durP2;ratioP2
19643;SDS011;9970;-36.854;174.870;2023-07-30T00:00:51;3.07;;;1.63;;
19643;SDS011;9970;-36.854;174.870;2023-07-30T00:03:24;1.40;;;1.40;;
19643;SDS011;9970;-36.854;174.870;2023-07-30T00:05:57;1.40;;;1.40;;
19643;SDS011;9970;-36.854;174.870;2023-07-30T00:08:30;2.03;;;1.50;;
19643;SDS011;9970;-36.854;174.870;2023-07-30T00:11:03;1.27;;;1.27;;
19643;SDS011;9970;-36.854;174.870;2023-07-30T00:13:36;1.37;;;1.37;;
19643;SDS011;9970;-36.854;174.870;2023-07-30T00:16:09;1.10;;;1.10;;
19643;SDS011;9970;-36.854;174.870;2023-07-30T00:18:43;1.43;;;1.43;;
19643;SDS011;9970;-36.854;174.870;2023-07-30T00:21:15;1.40;;;1.30;;
19643;SDS011;9970;-36.854;174.870;2023-07-30T00:23:48;1.40;;;1.40;;
19643;SDS011;9970;-36.854;174.870;2023-07-30T00:26:22;1.60;;;1.60;;
19643;SDS011;9970;-36.854;174.870;2023-07-30T00:29:00;1.97;;;1.87;;
19643;SDS011;9970;-36.854;174.870;2023-07-30T00:31:33;1.33;;;1.20;;
19643;SDS011;9970;-36.854;174.870;2023-07-30T00:34:10;1.33;;;1.23;;
19643;SDS011;9970;-36.854;174.870;2023-07-30T00:36:43;3.00;;;2.00;;
19643;SDS011;9970;-36.854;174.870;2023-07-30T00:39:16;2.90;;;1.33;;
19643;SDS011;9970;-36.854;174.870;2023-07-30T00:41:49;0.73;;;0.73;;
19643;SDS011;9970;-36.854;174.870;2023-07-30T00:44:22;1.47;;;0.80;;
19643;SDS011;9970;-36.854;174.870;2023-07-30T00:46:55;0.80;;;0.80;;
19643;SDS011;9970;-36.854;174.870;2023-07-30T00:49:28;1.00;;;1.00;;
19643;SDS011;9970;-36.854;174.870;2023-07-30T00:52:01;0.80;;;0.80;;
19643;SDS011;9970;-36.854;174.870;2023-07-30T00:54:36;1.73;;;0.90;;
19643;SDS011;9970;-36.854;174.870;2023-07-30T00:57:10;0.90;;;0.90;;
19643;SDS011;9970;-36.854;174.870;2023-07-30T00:59:43;0.90;;;0.90;;
19643;SDS011;9970;-36.854;174.870;2023-07-30T01:02:17;1.10;;;1.10;;
19643;SDS011;9970;-36.854;174.870;2023-07-30T01:04:50;1.33;;;1.33;;
19643;SDS011;9970;-36.854;174.870;2023-07-30T01:07:23;1.17;;;1.17;;
19643;SDS011;9970;-36.854;174.870;2023-07-30T01:09:55;1.00;;;1.00;;
19643;SDS011;9970;-36.854;174.870;2023-07-30T01:12:29;2.73;;;1.17;;
19643;SDS011;9970;-36.854;174.870;2023-07-30T01:15:04;1.20;;;1.20;;
19643;SDS011;9970;-36.854;174.870;2023-07-30T01:17:38;1.10;;;1.10;;
19643;SDS011;9970;-36.854;174.870;2023-07-30T01:20:12;1.50;;;1.50;;
19643;SDS011;9970;-36.854;174.870;2023-07-30T01:22:44;1.20;;;1.20;;
19643;SDS011;9970;-36.854;174.870;2023-07-30T01:25:17;1.30;;;1.30;;
19643;SDS011;9970;-36.854;174.870;2023-07-30T01:27:53;1.90;;;1.70;;
19643;SDS011;9970;-36.854;174.870;2023-07-30T01:30:29;1.53;;;1.13;;
19643;SDS011;9970;-36.854;174.870;2023-07-30T01:33:07;0.90;;;0.90;;
19643;SDS011;9970;-36.854;174.870;2023-07-30T01:35:41;1.17;;;1.17;;
19643;SDS011;9970;-36.854;174.870;2023-07-30T01:38:15;1.00;;;1.00;;
19643;SDS011;9970;-36.854;174.870;2023-07-30T01:40:48;1.00;;;1.00;;
19643;SDS011;9970;-36.854;174.870;2023-07-30T01:43:21;1.13;;;1.13;;
19643;SDS011;9970;-36.854;174.870;2023-07-30T01:45:54;1.07;;;1.07;;
19643;SDS011;9970;-36.854;174.870;2023-07-30T01:48:27;1.10;;;1.10;;
19643;SDS011;9970;-36.854;174.870;2023-07-30T01:51:00;1.30;;;1.20;;
19643;SDS011;9970;-36.854;174.870;2023-07-30T01:53:33;1.17;;;1.17;;
19643;SDS011;9970;-36.854;174.870;2023-07-30T01:56:06;1.23;;;1.23;;
19643;SDS011;9970;-36.854;174.870;2023-07-30T01:58:39;2.03;;;2.03;;
19643;SDS011;9970;-36.854;174.870;2023-07-30T02:01:12;1.10;;;1.10;;
19643;SDS011;9970;-36.854;174.870;2023-07-30T02:03:45;1.00;;;1.00;;
19643;SDS011;9970;-36.854;174.870;2023-07-30T02:06:18;0.80;;;0.80;;
19643;SDS011;9970;-36.854;174.870;2023-07-30T02:08:51;0.90;;;0.90;;
19643;SDS011;9970;-36.854;174.870;2023-07-30T02:11:24;0.73;;;0.73;;
19643;SDS011;9970;-36.854;174.870;2023-07-30T02:13:57;0.90;;;0.90;;
19643;SDS011;9970;-36.854;174.870;2023-07-30T02:16:30;1.23;;;0.80;;
19643;SDS011;9970;-36.854;174.870;2023-07-30T02:19:04;0.80;;;0.80;;
19643;SDS011;9970;-36.854;174.870;2023-07-30T02:21:37;0.83;;;0.83;;
19643;SDS011;9970;-36.854;174.870;2023-07-30T02:24:11;0.80;;;0.80;;
19643;SDS011;9970;-36.854;174.870;2023-07-30T02:26:44;0.80;;;0.80;;
19643;SDS011;9970;-36.854;174.870;2023-07-30T02:29:18;2.33;;;1.13;;
19643;SDS011;9970;-36.854;174.870;2023-07-30T02:31:51;0.70;;;0.70;;
19643;SDS011;9970;-36.854;174.870;2023-07-30T02:34:24;1.47;;;0.77;;
19643;SDS011;9970;-36.854;174.870;2023-07-30T02:36:57;0.70;;;0.70;;
19643;SDS011;9970;-36.854;174.870;2023-07-30T02:39:30;23.90;;;3.60;;
19643;SDS011;9970;-36.854;174.870;2023-07-30T02:44:57;10.90;;;2.70;;
19643;SDS011;9970;-36.854;174.870;2023-07-30T02:47:30;0.80;;;0.80;;
19643;SDS011;9970;-36.854;174.870;2023-07-30T02:50:06;28.43;;;3.33;;
19643;SDS011;9970;-36.854;174.870;2023-07-30T02:52:40;2.07;;;1.23;;
19643;SDS011;9970;-36.854;174.870;2023-07-30T02:55:13;0.80;;;0.80;;
19643;SDS011;9970;-36.854;174.870;2023-07-30T02:57:46;0.90;;;0.90;;
19643;SDS011;9970;-36.854;174.870;2023-07-30T03:00:19;0.87;;;0.87;;
19643;SDS011;9970;-36.854;174.870;2023-07-30T03:02:53;1.10;;;1.10;;
19643;SDS011;9970;-36.854;174.870;2023-07-30T03:05:27;0.90;;;0.90;;
19643;SDS011;9970;-36.854;174.870;2023-07-30T03:08:00;0.80;;;0.80;;
19643;SDS011;9970;-36.854;174.870;2023-07-30T03:10:33;0.70;;;0.70;;
19643;SDS011;9970;-36.854;174.870;2023-07-30T03:13:08;0.80;;;0.80;;
19643;SDS011;9970;-36.854;174.870;2023-07-30T03:15:41;0.80;;;0.80;;
19643;SDS011;9970;-36.854;174.870;2023-07-30T03:18:14;0.80;;;0.80;;
19643;SDS011;9970;-36.854;174.870;2023-07-30T03:20:47;0.97;;;0.83;;
19643;SDS011;9970;-36.854;174.870;2023-07-30T03:23:20;1.00;;;1.00;;
19643;SDS011;9970;-36.854;174.870;2023-07-30T03:25:53;0.87;;;0.87;;
19643;SDS011;9970;-36.854;174.870;2023-07-30T03:28:26;1.73;;;0.87;;
19643;SDS011;9970;-36.854;174.870;2023-07-30T03:30:59;0.93;;;0.93;;
19643;SDS011;9970;-36.854;174.870;2023-07-30T03:33:32;1.87;;;1.30;;
19643;SDS011;9970;-36.854;174.870;2023-07-30T03:36:05;1.47;;;1.47;;
19643;SDS011;9970;-36.854;174.870;2023-07-30T03:38:38;0.70;;;0.70;;
19643;SDS011;9970;-36.854;174.870;2023-07-30T03:41:11;1.47;;;1.00;;
19643;SDS011;9970;-36.854;174.870;2023-07-30T03:43:44;0.70;;;0.70;;
19643;SDS011;9970;-36.854;174.870;2023-07-30T03:46:17;0.70;;;0.70;;
19643;SDS011;9970;-36.854;174.870;2023-07-30T03:48:51;1.00;;;1.00;;
19643;SDS011;9970;-36.854;174.870;2023-07-30T03:51:24;0.83;;;0.83;;
19643;SDS011;9970;-36.854;174.870;2023-07-30T03:54:01;4.40;;;1.20;;
19643;SDS011;9970;-36.854;174.870;2023-07-30T03:56:34;0.93;;;0.93;;
19643;SDS011;9970;-36.854;174.870;2023-07-30T03:59:07;1.27;;;0.90;;
19643;SDS011;9970;-36.854;174.870;2023-07-30T04:01:40;0.90;;;0.90;;
19643;SDS011;9970;-36.854;174.870;2023-07-30T04:04:13;1.47;;;0.80;;
19643;SDS011;9970;-36.854;174.870;2023-07-30T04:06:46;2.83;;;0.90;;
19643;SDS011;9970;-36.854;174.870;2023-07-30T04:09:19;2.40;;;1.03;;
19643;SDS011;9970;-36.854;174.870;2023-07-30T04:11:52;0.73;;;0.73;;
19643;SDS011;9970;-36.854;174.870;2023-07-30T04:14:25;1.43;;;1.00;;
19643;SDS011;9970;-36.854;174.870;2023-07-30T04:16:57;0.73;;;0.73;;
19643;SDS011;9970;-36.854;174.870;2023-07-30T04:19:30;0.80;;;0.80;;
19643;SDS011;9970;-36.854;174.870;2023-07-30T04:22:07;1.70;;;0.90;;
19643;SDS011;9970;-36.854;174.870;2023-07-30T04:24:40;1.30;;;0.80;;
19643;SDS011;9970;-36.854;174.870;2023-07-30T04:27:13;1.07;;;0.97;;
19643;SDS011;9970;-36.854;174.870;2023-07-30T04:29:46;0.90;;;0.90;;
19643;SDS011;9970;-36.854;174.870;2023-07-30T04:32:19;1.30;;;1.30;;
19643;SDS011;9970;-36.854;174.870;2023-07-30T04:34:53;1.00;;;1.00;;
19643;SDS011;9970;-36.854;174.870;2023-07-30T04:37:26;1.70;;;1.60;;
19643;SDS011;9970;-36.854;174.870;2023-07-30T04:39:59;2.17;;;1.97;;
19643;SDS011;9970;-36.854;174.870;2023-07-30T04:42:33;2.27;;;2.10;;
19643;SDS011;9970;-36.854;174.870;2023-07-30T04:45:07;2.13;;;2.00;;
19643;SDS011;9970;-36.854;174.870;2023-07-30T04:47:41;30.60;;;15.37;;
19643;SDS011;9970;-36.854;174.870;2023-07-30T04:50:14;50.00;;;22.63;;
19643;SDS011;9970;-36.854;174.870;2023-07-30T04:52:47;25.77;;;10.10;;
19643;SDS011;9970;-36.854;174.870;2023-07-30T04:55:20;13.93;;;7.83;;
19643;SDS011;9970;-36.854;174.870;2023-07-30T04:57:53;5.77;;;4.90;;
19643;SDS011;9970;-36.854;174.870;2023-07-30T05:00:26;5.33;;;5.00;;
19643;SDS011;9970;-36.854;174.870;2023-07-30T05:02:59;7.07;;;6.57;;
19643;SDS011;9970;-36.854;174.870;2023-07-30T05:05:33;3.93;;;3.83;;
19643;SDS011;9970;-36.854;174.870;2023-07-30T05:08:06;16.07;;;13.90;;
19643;SDS011;9970;-36.854;174.870;2023-07-30T05:10:43;13.57;;;12.13;;
19643;SDS011;9970;-36.854;174.870;2023-07-30T05:13:16;9.73;;;8.73;;
19643;SDS011;9970;-36.854;174.870;2023-07-30T05:15:54;3.00;;;2.90;;
19643;SDS011;9970;-36.854;174.870;2023-07-30T05:18:28;2.10;;;2.00;;
19643;SDS011;9970;-36.854;174.870;2023-07-30T05:21:01;2.00;;;2.00;;
19643;SDS011;9970;-36.854;174.870;2023-07-30T05:23:34;1.20;;;1.20;;
19643;SDS011;9970;-36.854;174.870;2023-07-30T05:26:07;1.40;;;1.30;;
19643;SDS011;9970;-36.854;174.870;2023-07-30T05:28:40;1.23;;;1.23;;
19643;SDS011;9970;-36.854;174.870;2023-07-30T05:31:13;1.20;;;1.20;;
19643;SDS011;9970;-36.854;174.870;2023-07-30T05:33:46;1.40;;;1.40;;
19643;SDS011;9970;-36.854;174.870;2023-07-30T05:36:19;1.07;;;1.07;;
19643;SDS011;9970;-36.854;174.870;2023-07-30T05:38:52;1.50;;;1.40;;
19643;SDS011;9970;-36.854;174.870;2023-07-30T05:41:25;1.10;;;1.10;;
19643;SDS011;9970;-36.854;174.870;2023-07-30T05:43:58;1.30;;;1.20;;
19643;SDS011;9970;-36.854;174.870;2023-07-30T05:46:31;1.33;;;1.20;;
19643;SDS011;9970;-36.854;174.870;2023-07-30T05:49:04;1.40;;;1.40;;
19643;SDS011;9970;-36.854;174.870;2023-07-30T05:51:37;1.57;;;1.53;;
19643;SDS011;9970;-36.854;174.870;2023-07-30T05:54:11;1.00;;;1.00;;
19643;SDS011;9970;-36.854;174.870;2023-07-30T05:56:44;2.47;;;1.30;;
19643;SDS011;9970;-36.854;174.870;2023-07-30T05:59:21;1.77;;;1.67;;
19643;SDS011;9970;-36.854;174.870;2023-07-30T06:01:55;1.77;;;1.70;;
19643;SDS011;9970;-36.854;174.870;2023-07-30T06:04:31;2.23;;;2.13;;
19643;SDS011;9970;-36.854;174.870;2023-07-30T06:07:04;3.40;;;3.10;;
19643;SDS011;9970;-36.854;174.870;2023-07-30T06:09:37;5.43;;;4.93;;
19643;SDS011;9970;-36.854;174.870;2023-07-30T06:12:10;12.77;;;7.90;;
19643;SDS011;9970;-36.854;174.870;2023-07-30T06:14:43;10.10;;;7.77;;
19643;SDS011;9970;-36.854;174.870;2023-07-30T06:17:17;5.80;;;5.20;;
19643;SDS011;9970;-36.854;174.870;2023-07-30T06:19:50;3.73;;;3.40;;
19643;SDS011;9970;-36.854;174.870;2023-07-30T06:22:23;2.90;;;2.80;;
19643;SDS011;9970;-36.854;174.870;2023-07-30T06:24:56;3.10;;;3.00;;
19643;SDS011;9970;-36.854;174.870;2023-07-30T06:27:31;6.03;;;2.97;;
19643;SDS011;9970;-36.854;174.870;2023-07-30T06:30:04;3.67;;;3.37;;
19643;SDS011;9970;-36.854;174.870;2023-07-30T06:32:38;2.00;;;2.00;;
19643;SDS011;9970;-36.854;174.870;2023-07-30T06:35:11;2.20;;;2.20;;
19643;SDS011;9970;-36.854;174.870;2023-07-30T06:37:44;2.63;;;2.43;;
19643;SDS011;9970;-36.854;174.870;2023-07-30T06:40:17;2.67;;;2.47;;
19643;SDS011;9970;-36.854;174.870;2023-07-30T06:42:50;4.57;;;2.57;;
19643;SDS011;9970;-36.854;174.870;2023-07-30T06:45:23;4.50;;;3.27;;
19643;SDS011;9970;-36.854;174.870;2023-07-30T06:47:57;3.93;;;3.73;;
19643;SDS011;9970;-36.854;174.870;2023-07-30T06:50:30;4.63;;;4.30;;
19643;SDS011;9970;-36.854;174.870;2023-07-30T06:53:03;4.57;;;4.27;;
19643;SDS011;9970;-36.854;174.870;2023-07-30T06:55:36;6.17;;;5.13;;
19643;SDS011;9970;-36.854;174.870;2023-07-30T06:58:09;6.87;;;5.70;;
19643;SDS011;9970;-36.854;174.870;2023-07-30T07:00:42;11.10;;;7.27;;
19643;SDS011;9970;-36.854;174.870;2023-07-30T07:03:15;11.80;;;8.80;;
19643;SDS011;9970;-36.854;174.870;2023-07-30T07:05:54;13.83;;;10.10;;
19643;SDS011;9970;-36.854;174.870;2023-07-30T07:08:27;22.47;;;12.33;;
19643;SDS011;9970;-36.854;174.870;2023-07-30T07:11:00;15.30;;;11.30;;
19643;SDS011;9970;-36.854;174.870;2023-07-30T07:13:33;9.60;;;8.47;;
19643;SDS011;9970;-36.854;174.870;2023-07-30T07:16:06;8.10;;;7.30;;
19643;SDS011;9970;-36.854;174.870;2023-07-30T07:18:39;8.70;;;7.70;;
19643;SDS011;9970;-36.854;174.870;2023-07-30T07:21:12;9.83;;;8.93;;
19643;SDS011;9970;-36.854;174.870;2023-07-30T07:23:45;8.97;;;8.17;;
19643;SDS011;9970;-36.854;174.870;2023-07-30T07:26:18;12.87;;;9.97;;
19643;SDS011;9970;-36.854;174.870;2023-07-30T07:28:51;17.00;;;10.50;;
19643;SDS011;9970;-36.854;174.870;2023-07-30T07:31:25;11.53;;;10.00;;
19643;SDS011;9970;-36.854;174.870;2023-07-30T07:34:03;11.43;;;10.23;;
19643;SDS011;9970;-36.854;174.870;2023-07-30T07:36:36;10.07;;;9.07;;
19643;SDS011;9970;-36.854;174.870;2023-07-30T07:39:09;9.00;;;8.10;;
19643;SDS011;9970;-36.854;174.870;2023-07-30T07:41:42;11.57;;;8.70;;
19643;SDS011;9970;-36.854;174.870;2023-07-30T07:44:16;8.27;;;7.47;;
19643;SDS011;9970;-36.854;174.870;2023-07-30T07:46:52;12.97;;;8.87;;
19643;SDS011;9970;-36.854;174.870;2023-07-30T07:49:26;18.07;;;9.20;;
19643;SDS011;9970;-36.854;174.870;2023-07-30T07:51:59;12.23;;;10.87;;
19643;SDS011;9970;-36.854;174.870;2023-07-30T07:54:32;12.27;;;9.57;;
19643;SDS011;9970;-36.854;174.870;2023-07-30T07:57:06;14.90;;;10.47;;
19643;SDS011;9970;-36.854;174.870;2023-07-30T07:59:39;11.00;;;9.20;;
19643;SDS011;9970;-36.854;174.870;2023-07-30T08:02:13;12.73;;;10.63;;
19643;SDS011;9970;-36.854;174.870;2023-07-30T08:04:46;13.80;;;9.30;;
19643;SDS011;9970;-36.854;174.870;2023-07-30T08:07:20;9.30;;;8.40;;
19643;SDS011;9970;-36.854;174.870;2023-07-30T08:09:53;9.03;;;8.13;;
19643;SDS011;9970;-36.854;174.870;2023-07-30T08:12:26;10.53;;;8.17;;
19643;SDS011;9970;-36.854;174.870;2023-07-30T08:14:58;14.00;;;8.43;;
19643;SDS011;9970;-36.854;174.870;2023-07-30T08:17:31;11.90;;;8.13;;
19643;SDS011;9970;-36.854;174.870;2023-07-30T08:20:05;10.00;;;8.70;;
19643;SDS011;9970;-36.854;174.870;2023-07-30T08:22:39;12.60;;;8.07;;
19643;SDS011;9970;-36.854;174.870;2023-07-30T08:25:14;9.63;;;8.63;;
19643;SDS011;9970;-36.854;174.870;2023-07-30T08:27:48;9.80;;;7.60;;
19643;SDS011;9970;-36.854;174.870;2023-07-30T08:30:21;14.10;;;7.97;;
19643;SDS011;9970;-36.854;174.870;2023-07-30T08:32:54;14.20;;;8.30;;
19643;SDS011;9970;-36.854;174.870;2023-07-30T08:35:28;11.10;;;8.03;;
19643;SDS011;9970;-36.854;174.870;2023-07-30T08:38:00;7.87;;;6.50;;
19643;SDS011;9970;-36.854;174.870;2023-07-30T08:40:33;10.77;;;8.27;;
19643;SDS011;9970;-36.854;174.870;2023-07-30T08:43:06;10.97;;;7.73;;
19643;SDS011;9970;-36.854;174.870;2023-07-30T08:45:39;11.27;;;7.37;;
19643;SDS011;9970;-36.854;174.870;2023-07-30T08:48:13;14.03;;;8.87;;
19643;SDS011;9970;-36.854;174.870;2023-07-30T08:50:46;18.20;;;9.77;;
19643;SDS011;9970;-36.854;174.870;2023-07-30T08:53:22;13.80;;;9.10;;
19643;SDS011;9970;-36.854;174.870;2023-07-30T08:55:59;13.20;;;9.50;;
19643;SDS011;9970;-36.854;174.870;2023-07-30T08:58:33;16.37;;;9.10;;
19643;SDS011;9970;-36.854;174.870;2023-07-30T09:01:07;16.50;;;8.90;;
19643;SDS011;9970;-36.854;174.870;2023-07-30T09:03:40;11.33;;;8.53;;
19643;SDS011;9970;-36.854;174.870;2023-07-30T09:06:13;15.40;;;9.23;;
19643;SDS011;9970;-36.854;174.870;2023-07-30T09:08:46;10.17;;;8.50;;
19643;SDS011;9970;-36.854;174.870;2023-07-30T09:11:20;12.30;;;8.70;;
19643;SDS011;9970;-36.854;174.870;2023-07-30T09:13:56;10.50;;;8.53;;
19643;SDS011;9970;-36.854;174.870;2023-07-30T09:16:29;15.67;;;9.40;;
19643;SDS011;9970;-36.854;174.870;2023-07-30T09:19:02;15.80;;;10.07;;
19643;SDS011;9970;-36.854;174.870;2023-07-30T09:21:37;12.77;;;10.67;;
19643;SDS011;9970;-36.854;174.870;2023-07-30T09:24:10;11.80;;;9.80;;
19643;SDS011;9970;-36.854;174.870;2023-07-30T09:26:44;13.60;;;10.07;;
19643;SDS011;9970;-36.854;174.870;2023-07-30T09:29:17;8.77;;;7.90;;
19643;SDS011;9970;-36.854;174.870;2023-07-30T09:31:52;10.93;;;7.83;;
19643;SDS011;9970;-36.854;174.870;2023-07-30T09:34:26;8.33;;;6.47;;
19643;SDS011;9970;-36.854;174.870;2023-07-30T09:36:59;11.00;;;9.77;;
19643;SDS011;9970;-36.854;174.870;2023-07-30T09:39:36;14.20;;;12.50;;
19643;SDS011;9970;-36.854;174.870;2023-07-30T09:42:08;14.10;;;11.90;;
19643;SDS011;9970;-36.854;174.870;2023-07-30T09:44:42;13.13;;;11.70;;
19643;SDS011;9970;-36.854;174.870;2023-07-30T09:47:16;9.30;;;8.50;;
19643;SDS011;9970;-36.854;174.870;2023-07-30T09:49:49;9.97;;;8.97;;
19643;SDS011;9970;-36.854;174.870;2023-07-30T09:52:23;10.50;;;9.37;;
19643;SDS011;9970;-36.854;174.870;2023-07-30T09:54:57;8.73;;;7.53;;
19643;SDS011;9970;-36.854;174.870;2023-07-30T09:57:30;10.90;;;9.20;;
19643;SDS011;9970;-36.854;174.870;2023-07-30T10:00:03;9.10;;;8.30;;
19643;SDS011;9970;-36.854;174.870;2023-07-30T10:02:39;9.63;;;7.93;;
19643;SDS011;9970;-36.854;174.870;2023-07-30T10:05:17;11.27;;;9.20;;
19643;SDS011;9970;-36.854;174.870;2023-07-30T10:08:04;13.87;;;10.50;;
19643;SDS011;9970;-36.854;174.870;2023-07-30T10:10:32;12.57;;;11.27;;
19643;SDS011;9970;-36.854;174.870;2023-07-30T10:13:08;15.33;;;11.27;;
19643;SDS011;9970;-36.854;174.870;2023-07-30T10:15:45;13.53;;;11.20;;
19643;SDS011;9970;-36.854;174.870;2023-07-30T10:18:18;14.13;;;11.90;;
19643;SDS011;9970;-36.854;174.870;2023-07-30T10:20:54;13.50;;;10.77;;
19643;SDS011;9970;-36.854;174.870;2023-07-30T10:23:27;12.87;;;10.57;;
19643;SDS011;9970;-36.854;174.870;2023-07-30T10:26:11;10.43;;;9.43;;
19643;SDS011;9970;-36.854;174.870;2023-07-30T10:28:44;10.70;;;9.23;;
19643;SDS011;9970;-36.854;174.870;2023-07-30T10:31:17;12.10;;;9.50;;
19643;SDS011;9970;-36.854;174.870;2023-07-30T10:33:50;15.07;;;11.30;;
19643;SDS011;9970;-36.854;174.870;2023-07-30T10:36:31;9.37;;;8.50;;
19643;SDS011;9970;-36.854;174.870;2023-07-30T10:39:14;9.43;;;8.43;;
19643;SDS011;9970;-36.854;174.870;2023-07-30T10:41:54;7.73;;;7.13;;
19643;SDS011;9970;-36.854;174.870;2023-07-30T10:44:33;9.50;;;8.53;;
19643;SDS011;9970;-36.854;174.870;2023-07-30T10:47:07;15.10;;;9.17;;
19643;SDS011;9970;-36.854;174.870;2023-07-30T10:49:41;8.67;;;7.90;;
19643;SDS011;9970;-36.854;174.870;2023-07-30T10:52:16;11.00;;;8.37;;
19643;SDS011;9970;-36.854;174.870;2023-07-30T10:54:49;8.43;;;7.60;;
19643;SDS011;9970;-36.854;174.870;2023-07-30T10:57:23;8.27;;;7.33;;
19643;SDS011;9970;-36.854;174.870;2023-07-30T10:59:58;8.80;;;6.90;;
19643;SDS011;9970;-36.854;174.870;2023-07-30T11:02:31;6.77;;;6.20;;
19643;SDS011;9970;-36.854;174.870;2023-07-30T11:05:14;9.13;;;7.73;;
19643;SDS011;9970;-36.854;174.870;2023-07-30T11:07:51;9.17;;;7.77;;
19643;SDS011;9970;-36.854;174.870;2023-07-30T11:10:24;7.47;;;6.77;;
19643;SDS011;9970;-36.854;174.870;2023-07-30T11:12:57;9.47;;;5.90;;
19643;SDS011;9970;-36.854;174.870;2023-07-30T11:15:30;6.10;;;5.60;;
19643;SDS011;9970;-36.854;174.870;2023-07-30T11:18:03;8.00;;;6.97;;
19643;SDS011;9970;-36.854;174.870;2023-07-30T11:20:36;6.40;;;5.90;;
19643;SDS011;9970;-36.854;174.870;2023-07-30T11:23:22;5.90;;;5.40;;
19643;SDS011;9970;-36.854;174.870;2023-07-30T11:25:55;6.60;;;5.90;;
19643;SDS011;9970;-36.854;174.870;2023-07-30T11:28:31;5.93;;;5.33;;
19643;SDS011;9970;-36.854;174.870;2023-07-30T11:31:16;6.00;;;5.40;;
19643;SDS011;9970;-36.854;174.870;2023-07-30T11:33:46;11.60;;;8.07;;
19643;SDS011;9970;-36.854;174.870;2023-07-30T11:36:26;24.40;;;12.83;;
19643;SDS011;9970;-36.854;174.870;2023-07-30T11:38:55;14.07;;;10.70;;
19643;SDS011;9970;-36.854;174.870;2023-07-30T11:41:28;15.87;;;11.73;;
19643;SDS011;9970;-36.854;174.870;2023-07-30T11:44:01;15.23;;;12.57;;
19643;SDS011;9970;-36.854;174.870;2023-07-30T11:46:34;16.67;;;11.93;;
19643;SDS011;9970;-36.854;174.870;2023-07-30T11:49:15;14.13;;;10.67;;
19643;SDS011;9970;-36.854;174.870;2023-07-30T11:51:46;14.90;;;10.63;;
19643;SDS011;9970;-36.854;174.870;2023-07-30T11:54:20;10.10;;;8.17;;
19643;SDS011;9970;-36.854;174.870;2023-07-30T11:56:54;10.50;;;7.73;;
19643;SDS011;9970;-36.854;174.870;2023-07-30T11:59:28;10.13;;;7.00;;
19643;SDS011;9970;-36.854;174.870;2023-07-30T12:02:05;7.30;;;6.60;;
19643;SDS011;9970;-36.854;174.870;2023-07-30T12:04:45;5.50;;;5.00;;
19643;SDS011;9970;-36.854;174.870;2023-07-30T12:07:22;4.73;;;4.43;;
19643;SDS011;9970;-36.854;174.870;2023-07-30T12:10:05;4.83;;;4.53;;
19643;SDS011;9970;-36.854;174.870;2023-07-30T12:12:45;4.93;;;4.63;;
19643;SDS011;9970;-36.854;174.870;2023-07-30T12:15:20;4.43;;;4.03;;
19643;SDS011;9970;-36.854;174.870;2023-07-30T12:17:53;4.33;;;3.77;;
19643;SDS011;9970;-36.854;174.870;2023-07-30T12:20:27;6.30;;;5.80;;
19643;SDS011;9970;-36.854;174.870;2023-07-30T12:23:01;5.00;;;4.60;;
19643;SDS011;9970;-36.854;174.870;2023-07-30T12:25:34;6.27;;;4.77;;
19643;SDS011;9970;-36.854;174.870;2023-07-30T12:28:07;5.77;;;5.03;;
19643;SDS011;9970;-36.854;174.870;2023-07-30T12:30:40;6.10;;;5.50;;
19643;SDS011;9970;-36.854;174.870;2023-07-30T12:33:13;5.93;;;5.40;;
19643;SDS011;9970;-36.854;174.870;2023-07-30T12:35:46;7.00;;;6.30;;
19643;SDS011;9970;-36.854;174.870;2023-07-30T12:38:22;5.70;;;5.20;;
19643;SDS011;9970;-36.854;174.870;2023-07-30T12:40:55;4.90;;;4.50;;
19643;SDS011;9970;-36.854;174.870;2023-07-30T12:43:28;4.67;;;4.30;;
19643;SDS011;9970;-36.854;174.870;2023-07-30T12:46:01;4.53;;;4.23;;
19643;SDS011;9970;-36.854;174.870;2023-07-30T12:48:34;4.07;;;3.87;;
19643;SDS011;9970;-36.854;174.870;2023-07-30T12:51:07;4.03;;;3.73;;
19643;SDS011;9970;-36.854;174.870;2023-07-30T12:53:40;5.00;;;3.60;;
19643;SDS011;9970;-36.854;174.870;2023-07-30T12:56:13;3.90;;;3.70;;
19643;SDS011;9970;-36.854;174.870;2023-07-30T12:58:46;6.10;;;5.60;;
19643;SDS011;9970;-36.854;174.870;2023-07-30T13:01:19;5.67;;;5.00;;
19643;SDS011;9970;-36.854;174.870;2023-07-30T13:03:53;4.40;;;4.00;;
19643;SDS011;9970;-36.854;174.870;2023-07-30T13:06:26;8.20;;;4.83;;
19643;SDS011;9970;-36.854;174.870;2023-07-30T13:08:59;4.60;;;4.00;;
19643;SDS011;9970;-36.854;174.870;2023-07-30T13:11:32;4.40;;;3.67;;
19643;SDS011;9970;-36.854;174.870;2023-07-30T13:14:07;4.13;;;3.83;;
19643;SDS011;9970;-36.854;174.870;2023-07-30T13:16:40;4.80;;;3.70;;
19643;SDS011;9970;-36.854;174.870;2023-07-30T13:19:13;4.10;;;3.80;;
19643;SDS011;9970;-36.854;174.870;2023-07-30T13:21:46;2.93;;;2.80;;
19643;SDS011;9970;-36.854;174.870;2023-07-30T13:24:19;5.57;;;4.87;;
19643;SDS011;9970;-36.854;174.870;2023-07-30T13:26:52;5.73;;;5.23;;
19643;SDS011;9970;-36.854;174.870;2023-07-30T13:29:25;5.33;;;4.93;;
19643;SDS011;9970;-36.854;174.870;2023-07-30T13:31:58;7.60;;;5.77;;
19643;SDS011;9970;-36.854;174.870;2023-07-30T13:34:31;5.60;;;5.20;;
19643;SDS011;9970;-36.854;174.870;2023-07-30T13:37:04;6.80;;;6.10;;
19643;SDS011;9970;-36.854;174.870;2023-07-30T13:39:37;5.60;;;5.10;;
19643;SDS011;9970;-36.854;174.870;2023-07-30T13:42:10;5.40;;;5.00;;
19643;SDS011;9970;-36.854;174.870;2023-07-30T13:44:43;4.93;;;4.63;;
19643;SDS011;9970;-36.854;174.870;2023-07-30T13:47:16;6.10;;;5.50;;
19643;SDS011;9970;-36.854;174.870;2023-07-30T13:49:50;8.27;;;5.70;;
19643;SDS011;9970;-36.854;174.870;2023-07-30T13:52:23;6.13;;;5.50;;
19643;SDS011;9970;-36.854;174.870;2023-07-30T13:54:57;5.40;;;5.00;;
19643;SDS011;9970;-36.854;174.870;2023-07-30T13:57:30;7.73;;;5.60;;
19643;SDS011;9970;-36.854;174.870;2023-07-30T14:00:04;6.37;;;5.77;;
19643;SDS011;9970;-36.854;174.870;2023-07-30T14:02:37;8.67;;;7.00;;
19643;SDS011;9970;-36.854;174.870;2023-07-30T14:05:11;7.70;;;6.23;;
19643;SDS011;9970;-36.854;174.870;2023-07-30T14:07:44;7.73;;;6.90;;
19643;SDS011;9970;-36.854;174.870;2023-07-30T14:10:17;11.57;;;6.93;;
19643;SDS011;9970;-36.854;174.870;2023-07-30T14:12:50;11.07;;;7.10;;
19643;SDS011;9970;-36.854;174.870;2023-07-30T14:15:23;9.07;;;7.33;;
19643;SDS011;9970;-36.854;174.870;2023-07-30T14:17:56;10.40;;;7.30;;
19643;SDS011;9970;-36.854;174.870;2023-07-30T14:20:29;11.93;;;8.23;;
19643;SDS011;9970;-36.854;174.870;2023-07-30T14:23:03;12.97;;;7.67;;
19643;SDS011;9970;-36.854;174.870;2023-07-30T14:25:35;4.30;;;4.10;;
19643;SDS011;9970;-36.854;174.870;2023-07-30T14:28:08;7.37;;;5.93;;
19643;SDS011;9970;-36.854;174.870;2023-07-30T14:30:42;7.23;;;6.20;;
19643;SDS011;9970;-36.854;174.870;2023-07-30T14:33:16;8.37;;;7.00;;
19643;SDS011;9970;-36.854;174.870;2023-07-30T14:35:49;6.70;;;6.10;;
19643;SDS011;9970;-36.854;174.870;2023-07-30T14:38:22;13.93;;;7.57;;
19643;SDS011;9970;-36.854;174.870;2023-07-30T14:40:55;7.90;;;6.20;;
19643;SDS011;9970;-36.854;174.870;2023-07-30T14:43:28;8.70;;;6.40;;
19643;SDS011;9970;-36.854;174.870;2023-07-30T14:46:01;8.53;;;7.10;;
19643;SDS011;9970;-36.854;174.870;2023-07-30T14:48:34;6.93;;;6.13;;
19643;SDS011;9970;-36.854;174.870;2023-07-30T14:51:07;8.70;;;5.93;;
19643;SDS011;9970;-36.854;174.870;2023-07-30T14:53:40;6.47;;;5.87;;
19643;SDS011;9970;-36.854;174.870;2023-07-30T14:56:14;6.07;;;5.57;;